Piedra Clavada, Argentina
Current Conditions -  °F | °C
As of 2:00 PM on Tuesday 21 Oct 2014 (Local Time) from SAVC Reporting Station
Broken Clouds Broken Clouds  
Wind Chill: 75°   Ceiling: 20000
Heat Index: 75°   Visibility: 6mi
Dew Point: 39°   Wind: 26mph
Humidity: 27%   Direction: 320°NW
Pressure: 29.56"   Gusts: NA
Location:  43.64°S, 67.36°W
Report Text: SAVC 211700Z 32023KT 9999 SCT040 BKN20024/04 Q1001
Loading
Personal Weather Stations






























Interactive Weather Map
Tropical Storm Tracking
New forecast layout! Learn more

10-Day Weather Forecast

Advertisements
Track Severe Weather on mobile